createdAt,value
2022-12-24T00:00:58.133Z,0
2022-12-24T00:01:57.039Z,0
2022-12-24T00:02:57.833Z,0
2022-12-24T00:03:57.172Z,0
2022-12-24T00:05:05.696Z,0
2022-12-24T00:05:57.466Z,0
2022-12-24T00:06:58.076Z,0
2022-12-24T00:07:56.713Z,0
2022-12-24T00:08:57.215Z,0
2022-12-24T00:09:57.189Z,0
2022-12-24T00:10:57.200Z,0
2022-12-24T00:11:57.173Z,0
2022-12-24T00:12:56.642Z,0
2022-12-24T00:13:56.863Z,0
2022-12-24T00:14:57.356Z,0
2022-12-24T00:15:57.129Z,0
2022-12-24T00:16:57.940Z,0
2022-12-24T00:17:56.826Z,0
2022-12-24T00:18:57.339Z,0
2022-12-24T00:19:56.529Z,0
2022-12-24T00:20:57.325Z,0
2022-12-24T00:21:57.022Z,0
2022-12-24T00:22:56.749Z,0
2022-12-24T00:23:57.059Z,0
2022-12-24T00:24:57.220Z,0
2022-12-24T00:25:57.523Z,0
2022-12-24T00:26:56.693Z,0
2022-12-24T00:27:56.681Z,0
2022-12-24T00:28:56.919Z,0
2022-12-24T00:29:56.668Z,0
2022-12-24T00:30:57.231Z,0
2022-12-24T00:31:56.636Z,0
2022-12-24T00:32:56.972Z,0
2022-12-24T00:33:56.082Z,0
2022-12-24T00:34:57.803Z,0
2022-12-24T00:35:56.827Z,0
2022-12-24T00:36:57.111Z,0
2022-12-24T00:37:56.774Z,0
2022-12-24T00:39:01.525Z,0
2022-12-24T00:39:57.036Z,0
2022-12-24T00:40:56.751Z,0
2022-12-24T00:41:56.990Z,0
2022-12-24T00:42:56.974Z,0
2022-12-24T00:43:56.703Z,0
2022-12-24T00:44:56.956Z,0
2022-12-24T00:45:56.737Z,0
2022-12-24T00:46:56.809Z,0
2022-12-24T00:47:56.420Z,0
2022-12-24T00:48:57.102Z,0
2022-12-24T00:49:56.883Z,0
2022-12-24T00:50:57.094Z,0
2022-12-24T00:51:56.618Z,0
2022-12-24T00:52:57.390Z,0
2022-12-24T00:53:56.600Z,0
2022-12-24T00:54:56.319Z,0
2022-12-24T00:55:56.865Z,0
2022-12-24T00:56:56.539Z,0
2022-12-24T00:57:56.256Z,0
2022-12-24T00:58:56.560Z,0
2022-12-24T00:59:56.257Z,0
2022-12-24T01:00:56.483Z,0
2022-12-24T01:01:58.612Z,0
2022-12-24T01:02:57.684Z,0
2022-12-24T01:03:57.228Z,0
2022-12-24T01:04:56.543Z,0
2022-12-24T01:05:56.413Z,0
2022-12-24T01:06:56.856Z,0
2022-12-24T01:07:56.592Z,0
2022-12-24T01:08:57.149Z,0
2022-12-24T01:09:56.802Z,0
2022-12-24T01:10:56.847Z,0
2022-12-24T01:11:56.771Z,0
2022-12-24T01:12:57.021Z,0
2022-12-24T01:13:56.484Z,0
2022-12-24T01:14:56.745Z,0
2022-12-24T01:15:56.821Z,0
2022-12-24T01:16:56.699Z,0
2022-12-24T01:17:56.684Z,0
2022-12-24T01:18:56.457Z,0
2022-12-24T01:19:57.688Z,0
2022-12-24T01:20:56.760Z,0
2022-12-24T01:21:56.662Z,0
2022-12-24T01:22:56.370Z,0
2022-12-24T01:23:56.848Z,0
2022-12-24T01:24:56.892Z,0
2022-12-24T01:25:56.076Z,0
2022-12-24T01:26:56.813Z,0
2022-12-24T01:27:56.541Z,0
2022-12-24T01:28:57.985Z,0
2022-12-24T01:29:57.407Z,0
2022-12-24T01:30:57.902Z,0
2022-12-24T01:31:57.453Z,0
2022-12-24T01:32:57.366Z,0
2022-12-24T01:34:29.417Z,0
2022-12-24T01:34:57.328Z,0
2022-12-24T01:35:57.047Z,0
2022-12-24T01:36:57.682Z,0
2022-12-24T01:37:57.628Z,0
2022-12-24T01:38:57.590Z,0
2022-12-24T01:39:57.510Z,0
2022-12-24T01:40:57.541Z,0
2022-12-24T01:41:57.512Z,0
2022-12-24T01:42:57.223Z,0
2022-12-24T01:43:57.212Z,0
2022-12-24T01:44:56.933Z,0
2022-12-24T01:45:58.509Z,0
2022-12-24T01:46:57.233Z,0
2022-12-24T01:47:57.178Z,0
2022-12-24T01:48:57.386Z,0
2022-12-24T01:49:56.889Z,0
2022-12-24T01:50:56.899Z,0
2022-12-24T01:51:57.075Z,0
2022-12-24T01:52:57.431Z,0
2022-12-24T01:53:57.086Z,0
2022-12-24T01:54:58.053Z,0
2022-12-24T01:55:57.299Z,0
2022-12-24T01:56:58.682Z,0
2022-12-24T01:57:56.743Z,0
2022-12-24T01:58:56.740Z,0
2022-12-24T01:59:56.992Z,0
2022-12-24T02:00:56.986Z,0
2022-12-24T02:01:57.922Z,0
2022-12-24T02:02:57.911Z,0
2022-12-24T02:03:57.617Z,0
2022-12-24T02:04:56.646Z,0
2022-12-24T02:05:57.234Z,0
2022-12-24T02:06:56.606Z,0
2022-12-24T02:07:56.877Z,0
2022-12-24T02:08:57.246Z,0
2022-12-24T02:09:57.144Z,0
2022-12-24T02:10:56.812Z,0
2022-12-24T02:11:56.789Z,0
2022-12-24T02:12:56.839Z,0
2022-12-24T02:13:57.045Z,0
2022-12-24T02:14:56.519Z,0
2022-12-24T02:15:56.859Z,0
2022-12-24T02:16:56.765Z,0
2022-12-24T02:17:56.756Z,0
2022-12-24T02:18:56.963Z,0
2022-12-24T02:19:56.958Z,0
2022-12-24T02:20:56.663Z,0
2022-12-24T02:21:56.530Z,0
2022-12-24T02:22:56.931Z,0
2022-12-24T02:23:56.656Z,0
2022-12-24T02:24:56.979Z,0
2022-12-24T02:25:56.096Z,0
2022-12-24T02:26:56.606Z,0
2022-12-24T02:27:56.594Z,0
2022-12-24T02:28:56.850Z,0
2022-12-24T02:29:56.637Z,0
2022-12-24T02:30:56.893Z,0
2022-12-24T02:31:56.604Z,0
2022-12-24T02:32:56.259Z,0
2022-12-24T02:33:56.756Z,0
2022-12-24T02:34:56.488Z,0
2022-12-24T02:35:56.236Z,0
2022-12-24T02:36:56.203Z,0
2022-12-24T02:37:56.201Z,0
2022-12-24T02:38:56.207Z,0
2022-12-24T02:39:56.718Z,0
2022-12-24T02:40:56.762Z,0
2022-12-24T02:41:56.650Z,0
2022-12-24T02:42:56.374Z,0
2022-12-24T02:43:56.376Z,0
2022-12-24T02:44:56.746Z,0
2022-12-24T02:46:04.201Z,0
2022-12-24T02:46:56.500Z,0
2022-12-24T02:47:56.294Z,0
2022-12-24T02:48:56.303Z,0
2022-12-24T02:49:56.056Z,0
2022-12-24T02:50:56.503Z,0
2022-12-24T02:51:56.228Z,0
2022-12-24T02:52:56.330Z,0
2022-12-24T02:53:56.198Z,0
2022-12-24T02:54:55.953Z,0
2022-12-24T02:55:55.935Z,0
2022-12-24T02:56:56.560Z,0
2022-12-24T02:57:56.173Z,0
2022-12-24T02:58:56.429Z,0
2022-12-24T02:59:56.396Z,0
2022-12-24T03:00:56.792Z,0
2022-12-24T03:01:56.753Z,0
2022-12-24T03:02:56.488Z,0
2022-12-24T03:03:56.068Z,0
2022-12-24T03:04:56.322Z,0
2022-12-24T03:05:56.310Z,0
2022-12-24T03:06:56.305Z,0
2022-12-24T03:07:55.994Z,0
2022-12-24T03:08:55.512Z,0
2022-12-24T03:09:55.985Z,0
2022-12-24T03:10:55.959Z,0
2022-12-24T03:11:55.986Z,0
2022-12-24T03:12:56.299Z,0
2022-12-24T03:13:55.926Z,0
2022-12-24T03:14:55.643Z,0
2022-12-24T03:15:56.248Z,0
2022-12-24T03:16:56.263Z,0
2022-12-24T03:17:55.857Z,0
2022-12-24T03:18:56.110Z,0
2022-12-24T03:19:55.831Z,0
2022-12-24T03:20:55.818Z,0
2022-12-24T03:21:55.818Z,0
2022-12-24T03:22:55.525Z,0
2022-12-24T03:23:56.138Z,0
2022-12-24T03:24:55.502Z,0
2022-12-24T03:25:55.742Z,0
2022-12-24T03:26:55.744Z,0
2022-12-24T03:27:55.709Z,0
2022-12-24T03:28:55.803Z,0
2022-12-24T03:29:55.669Z,0
2022-12-24T03:30:55.452Z,0
2022-12-24T03:31:55.961Z,0
2022-12-24T03:32:55.782Z,0
2022-12-24T03:50:09.907Z,0
2022-12-24T03:51:09.172Z,0
2022-12-24T03:52:09.157Z,0
2022-12-24T03:53:09.382Z,0
2022-12-24T03:54:09.599Z,0
2022-12-24T03:55:09.669Z,0
2022-12-24T03:56:09.036Z,0
2022-12-24T03:57:09.034Z,0
2022-12-24T03:58:08.832Z,0
2022-12-24T03:59:09.559Z,0
2022-12-24T04:00:09.310Z,0
2022-12-24T04:01:09.388Z,0
2022-12-24T04:02:10.616Z,0
2022-12-24T04:03:09.497Z,0
2022-12-24T04:04:09.165Z,0
2022-12-24T04:05:09.508Z,0
2022-12-24T04:06:09.543Z,0
2022-12-24T04:07:09.153Z,0
2022-12-24T04:08:09.134Z,0
2022-12-24T04:09:08.857Z,0
2022-12-24T04:10:09.344Z,0
2022-12-24T04:11:16.601Z,0
2022-12-24T04:12:09.057Z,0
2022-12-24T04:13:09.080Z,0
2022-12-24T04:14:09.282Z,0
2022-12-24T04:15:09.033Z,0
2022-12-24T04:16:09.282Z,0
2022-12-24T04:17:09.518Z,0
2022-12-24T04:18:09.256Z,0
2022-12-24T04:19:09.217Z,0
2022-12-24T04:20:08.439Z,0
2022-12-24T04:21:08.932Z,0
2022-12-24T04:22:09.307Z,0
2022-12-24T04:23:08.620Z,0
2022-12-24T04:24:08.911Z,0
2022-12-24T04:25:08.950Z,0
2022-12-24T04:26:09.152Z,0
2022-12-24T04:27:08.589Z,0
2022-12-24T04:28:08.841Z,0
2022-12-24T04:29:09.068Z,0
2022-12-24T04:30:08.341Z,0
2022-12-24T04:31:08.817Z,0
2022-12-24T04:32:09.001Z,0
2022-12-24T04:33:08.997Z,0
2022-12-24T04:34:08.478Z,0
2022-12-24T04:35:08.729Z,0
2022-12-24T04:36:08.740Z,0
2022-12-24T04:37:08.711Z,0
2022-12-24T04:38:09.069Z,0
2022-12-24T04:39:08.653Z,0
2022-12-24T04:40:08.651Z,0
2022-12-24T04:41:08.132Z,0
2022-12-24T04:42:08.344Z,0
2022-12-24T04:43:08.357Z,0
2022-12-24T04:44:08.826Z,0
2022-12-24T04:45:08.837Z,0
2022-12-24T04:46:08.724Z,0
2022-12-24T04:47:08.530Z,0
2022-12-24T04:48:08.776Z,0
2022-12-24T04:49:08.890Z,0
2022-12-24T04:50:08.731Z,0
2022-12-24T04:51:08.489Z,0
2022-12-24T04:52:08.462Z,0
2022-12-24T04:53:08.697Z,0
2022-12-24T04:54:08.787Z,0
2022-12-24T04:55:08.450Z,0
2022-12-24T04:56:08.669Z,0
2022-12-24T04:57:08.353Z,0
2022-12-24T04:58:08.103Z,0
2022-12-24T04:59:08.616Z,0
2022-12-24T05:00:08.329Z,0
2022-12-24T05:01:08.907Z,0
2022-12-24T05:02:09.600Z,0
2022-12-24T05:03:08.466Z,0
2022-12-24T05:04:08.545Z,0
2022-12-24T05:05:08.002Z,0
2022-12-24T05:06:11.195Z,0
2022-12-24T05:07:08.518Z,0
2022-12-24T05:08:08.465Z,0
2022-12-24T05:09:08.243Z,0
2022-12-24T05:10:08.570Z,0
2022-12-24T05:11:08.234Z,0
2022-12-24T05:12:07.630Z,0
2022-12-24T05:13:07.900Z,0
2022-12-24T05:14:08.409Z,0
2022-12-24T05:15:08.101Z,0
2022-12-24T05:16:08.385Z,0
2022-12-24T05:17:08.266Z,0
2022-12-24T05:18:08.384Z,0
2022-12-24T05:19:08.326Z,0
2022-12-24T05:20:07.840Z,0
2022-12-24T05:21:08.027Z,0
2022-12-24T05:22:08.303Z,0
2022-12-24T05:23:08.001Z,0
2022-12-24T05:24:07.506Z,0
2022-12-24T05:25:08.059Z,0
2022-12-24T05:26:08.341Z,0
2022-12-24T05:27:08.208Z,0
2022-12-24T05:28:07.651Z,0
2022-12-24T05:29:07.698Z,0
2022-12-24T05:30:07.671Z,0
2022-12-24T05:31:08.482Z,0
2022-12-24T05:32:08.094Z,0
2022-12-24T05:33:08.111Z,0
2022-12-24T05:34:08.190Z,0
2022-12-24T05:35:08.144Z,0
2022-12-24T05:36:07.858Z,0
2022-12-24T05:37:07.533Z,0
2022-12-24T05:38:07.536Z,0
2022-12-24T05:39:15.864Z,0
2022-12-24T05:40:07.727Z,0
2022-12-24T05:41:07.460Z,0
2022-12-24T05:42:08.134Z,0
2022-12-24T05:43:07.680Z,0
2022-12-24T05:44:07.190Z,0
2022-12-24T05:45:07.392Z,0
2022-12-24T05:46:07.868Z,0
2022-12-24T05:47:07.883Z,0
2022-12-24T05:48:07.344Z,0
2022-12-24T05:49:07.910Z,0
2022-12-24T05:50:07.646Z,0
2022-12-24T05:51:07.331Z,0
2022-12-24T05:52:07.566Z,0
2022-12-24T05:53:07.185Z,0
2022-12-24T05:57:28.882Z,0
2022-12-24T05:58:28.710Z,0
2022-12-24T05:59:28.714Z,0
2022-12-24T06:00:28.670Z,0
2022-12-24T06:01:28.627Z,0
2022-12-24T06:02:28.478Z,0
2022-12-24T06:03:28.636Z,0
2022-12-24T06:04:36.141Z,0
2022-12-24T06:05:28.641Z,0
2022-12-24T06:06:28.621Z,0
2022-12-24T06:07:28.596Z,0
2022-12-24T06:08:28.061Z,0
2022-12-24T06:09:28.073Z,0
2022-12-24T06:10:28.136Z,0
2022-12-24T06:11:28.283Z,0
2022-12-24T06:12:28.283Z,0
2022-12-24T06:13:28.708Z,0
2022-12-24T06:14:28.253Z,0
2022-12-24T06:15:33.373Z,0
2022-12-24T06:16:29.152Z,0
2022-12-24T06:17:28.441Z,0
2022-12-24T06:18:27.928Z,0
2022-12-24T06:19:28.134Z,0
2022-12-24T06:20:27.660Z,0
2022-12-24T06:21:28.248Z,0
2022-12-24T06:22:28.384Z,0
2022-12-24T06:23:28.339Z,0
2022-12-24T06:24:28.066Z,0
2022-12-24T06:25:28.835Z,0
2022-12-24T06:26:28.039Z,0
2022-12-24T06:27:28.299Z,0
2022-12-24T06:28:28.013Z,0
2022-12-24T06:29:29.944Z,0
2022-12-24T06:30:28.660Z,0
2022-12-24T06:31:28.803Z,0
2022-12-24T06:32:28.251Z,0
2022-12-24T06:33:27.942Z,0
2022-12-24T06:34:28.190Z,0
2022-12-24T06:35:27.909Z,0
2022-12-24T06:36:27.440Z,0
2022-12-24T06:37:28.203Z,0
2022-12-24T06:38:27.888Z,0
2022-12-24T06:39:28.212Z,0
2022-12-24T06:40:27.845Z,0
2022-12-24T06:41:28.079Z,0
2022-12-24T06:42:28.066Z,0
2022-12-24T06:43:27.817Z,0
2022-12-24T06:44:27.771Z,0
2022-12-24T06:45:28.153Z,0
2022-12-24T06:46:27.937Z,0
2022-12-24T06:47:27.503Z,0
2022-12-24T06:48:27.544Z,0
2022-12-24T06:49:27.488Z,0
2022-12-24T06:50:27.683Z,0
2022-12-24T06:51:27.422Z,0
2022-12-24T06:52:27.969Z,0
2022-12-24T06:53:27.666Z,0
2022-12-24T06:54:27.887Z,0
2022-12-24T06:55:27.619Z,0
2022-12-24T06:56:26.856Z,0
2022-12-24T06:57:27.341Z,0
2022-12-24T06:58:27.824Z,0
2022-12-24T06:59:27.565Z,0
2022-12-24T07:00:27.286Z,0
2022-12-24T07:01:28.813Z,0
2022-12-24T07:02:28.717Z,0
2022-12-24T07:03:27.610Z,0
2022-12-24T07:04:30.257Z,0
2022-12-24T07:05:28.029Z,0
2022-12-24T07:06:27.987Z,0
2022-12-24T07:07:27.698Z,0
2022-12-24T07:08:27.675Z,0
2022-12-24T07:09:28.191Z,5
2022-12-24T07:10:28.188Z,5
2022-12-24T07:11:28.424Z,5
2022-12-24T07:12:27.887Z,5
2022-12-24T07:13:28.128Z,5
2022-12-24T07:14:28.357Z,5
2022-12-24T07:15:27.876Z,5
2022-12-24T07:16:29.020Z,5
2022-12-24T07:17:29.250Z,5
2022-12-24T07:18:28.309Z,5
2022-12-24T07:19:28.037Z,10
2022-12-24T07:20:28.003Z,10
2022-12-24T07:21:28.012Z,10
2022-12-24T07:22:28.240Z,10
2022-12-24T07:23:27.457Z,10
2022-12-24T07:24:27.706Z,10
2022-12-24T07:25:27.924Z,10
2022-12-24T07:26:27.667Z,10
2022-12-24T07:27:27.648Z,15
2022-12-24T07:28:35.445Z,15
2022-12-24T07:29:27.889Z,15
2022-12-24T07:30:27.622Z,15
2022-12-24T07:31:28.238Z,20
2022-12-24T07:32:27.314Z,20
2022-12-24T07:33:28.195Z,20
2022-12-24T07:34:28.063Z,25
2022-12-24T07:35:28.052Z,25
2022-12-24T07:36:27.781Z,25
2022-12-24T07:37:27.517Z,25
2022-12-24T07:38:27.728Z,25
2022-12-24T07:39:27.712Z,25
2022-12-24T07:40:27.447Z,30
2022-12-24T07:41:27.695Z,30
2022-12-24T07:42:27.439Z,30
2022-12-24T07:43:27.399Z,35
2022-12-24T07:44:27.402Z,35
2022-12-24T07:45:27.638Z,35
2022-12-24T07:46:28.212Z,35
2022-12-24T07:47:27.385Z,40
2022-12-24T07:48:27.867Z,45
2022-12-24T07:49:27.982Z,45
2022-12-24T07:50:27.552Z,40
2022-12-24T07:51:27.544Z,35
2022-12-24T07:52:27.534Z,35
2022-12-24T07:53:27.543Z,35
2022-12-24T07:54:27.752Z,30
2022-12-24T07:55:27.253Z,35
2022-12-24T07:56:27.455Z,40
2022-12-24T07:57:27.466Z,40
2022-12-24T07:58:27.239Z,45
2022-12-24T07:59:27.148Z,45
2022-12-24T08:00:27.478Z,50
2022-12-24T08:01:27.958Z,50
2022-12-24T08:02:28.987Z,45
2022-12-24T08:03:28.575Z,45
2022-12-24T08:04:27.613Z,45
2022-12-24T08:05:27.764Z,50
2022-12-24T08:06:27.337Z,60
2022-12-24T08:07:27.067Z,70
2022-12-24T08:08:27.286Z,70
2022-12-24T08:09:28.427Z,65
2022-12-24T08:10:28.181Z,65
2022-12-24T08:11:28.201Z,70
2022-12-24T08:12:28.129Z,65
2022-12-24T08:13:28.434Z,70
2022-12-24T08:14:28.407Z,70
2022-12-24T08:15:27.863Z,70
2022-12-24T08:16:28.188Z,70
2022-12-24T08:17:34.860Z,65
2022-12-24T08:18:28.041Z,65
2022-12-24T08:19:27.545Z,65
2022-12-24T08:20:28.010Z,65
2022-12-24T08:21:28.453Z,60
2022-12-24T08:22:28.273Z,55
2022-12-24T08:23:27.732Z,55
2022-12-24T08:24:27.717Z,50
2022-12-24T08:25:27.965Z,45
2022-12-24T08:26:28.176Z,45
2022-12-24T08:27:27.996Z,40
2022-12-24T08:28:28.190Z,35
2022-12-24T08:29:28.133Z,35
2022-12-24T08:30:30.482Z,35
2022-12-24T08:31:28.921Z,40
2022-12-24T08:32:28.358Z,40
2022-12-24T08:33:28.324Z,45
2022-12-24T08:34:28.591Z,40
2022-12-24T08:35:28.062Z,45
2022-12-24T08:36:28.328Z,55
2022-12-24T08:37:28.673Z,50
2022-12-24T08:38:27.495Z,55
2022-12-24T08:39:27.985Z,50
2022-12-24T08:40:28.274Z,50
2022-12-24T08:41:28.288Z,50
2022-12-24T08:42:28.465Z,35
2022-12-24T08:43:28.241Z,35
2022-12-24T08:44:28.483Z,40
2022-12-24T08:45:28.346Z,45
2022-12-24T08:46:29.028Z,50
2022-12-24T08:47:28.168Z,50
2022-12-24T08:48:28.396Z,50
2022-12-24T08:49:28.357Z,55
2022-12-24T08:50:28.347Z,75
2022-12-24T08:51:28.078Z,85
2022-12-24T08:52:27.559Z,85
2022-12-24T08:53:28.545Z,85
2022-12-24T08:54:27.802Z,85
2022-12-24T08:55:27.769Z,85
2022-12-24T08:56:28.272Z,80
2022-12-24T08:57:28.002Z,70
2022-12-24T08:58:27.978Z,60
2022-12-24T08:59:28.228Z,55
2022-12-24T09:00:27.470Z,55
2022-12-24T09:01:28.595Z,60
2022-12-24T09:02:29.001Z,70
2022-12-24T09:03:36.928Z,80
2022-12-24T09:04:27.656Z,80
2022-12-24T09:05:28.156Z,80
2022-12-24T09:06:27.627Z,75
2022-12-24T09:07:27.829Z,70
2022-12-24T09:08:27.600Z,65
2022-12-24T09:09:31.487Z,65
2022-12-24T09:10:27.822Z,60
2022-12-24T09:11:27.796Z,50
2022-12-24T09:12:27.790Z,45
2022-12-24T09:13:27.797Z,45
2022-12-24T09:14:27.492Z,55
2022-12-24T09:15:28.073Z,50
2022-12-24T09:16:27.763Z,45
2022-12-24T09:17:27.439Z,45
2022-12-24T09:18:27.174Z,50
2022-12-24T09:19:27.163Z,50
2022-12-24T09:20:27.551Z,50
2022-12-24T09:21:27.944Z,50
2022-12-24T09:22:27.881Z,55
2022-12-24T09:23:27.865Z,55
2022-12-24T09:24:27.704Z,55
2022-12-24T09:25:28.120Z,55
2022-12-24T09:26:27.571Z,50
2022-12-24T09:27:27.589Z,55
2022-12-24T09:28:27.572Z,50
2022-12-24T09:29:27.276Z,65
2022-12-24T09:30:27.725Z,80
2022-12-24T09:31:27.671Z,85
2022-12-24T09:32:27.435Z,80
2022-12-24T09:33:27.475Z,90
2022-12-24T09:34:35.561Z,95
2022-12-24T09:35:27.691Z,90
2022-12-24T09:36:27.716Z,85
2022-12-24T09:37:27.190Z,75
2022-12-24T09:38:27.425Z,75
2022-12-24T09:39:27.394Z,70
2022-12-24T09:40:27.382Z,60
2022-12-24T09:41:27.964Z,75
2022-12-24T09:42:27.626Z,80
2022-12-24T09:43:27.611Z,85
2022-12-24T09:44:27.392Z,80
2022-12-24T09:45:27.100Z,75
2022-12-24T09:46:27.342Z,70
2022-12-24T09:47:27.287Z,70
2022-12-24T09:48:27.005Z,70
2022-12-24T09:49:27.300Z,75
2022-12-24T09:50:27.581Z,65
2022-12-24T09:51:26.947Z,55
2022-12-24T09:52:27.201Z,50
2022-12-24T09:53:27.441Z,45
2022-12-24T09:54:27.179Z,45
2022-12-24T09:55:27.152Z,40
2022-12-24T09:56:27.184Z,40
2022-12-24T09:57:27.495Z,40
2022-12-24T09:58:27.122Z,45
2022-12-24T09:59:27.129Z,45
2022-12-24T10:00:26.583Z,55
2022-12-24T10:01:28.200Z,60
2022-12-24T10:02:28.292Z,75
2022-12-24T10:03:27.534Z,85
2022-12-24T10:04:27.286Z,90
2022-12-24T10:05:27.047Z,90
2022-12-24T10:06:35.982Z,85
2022-12-24T10:07:27.255Z,85
2022-12-24T10:08:27.309Z,100
2022-12-24T10:09:26.950Z,110
2022-12-24T10:10:26.954Z,110
2022-12-24T10:11:26.673Z,105
2022-12-24T10:12:26.943Z,105
2022-12-24T10:13:27.286Z,100
2022-12-24T10:14:26.913Z,105
2022-12-24T10:15:26.890Z,115
2022-12-24T10:16:26.872Z,110
2022-12-24T10:17:26.960Z,115
2022-12-24T10:18:26.585Z,115
2022-12-24T10:19:27.067Z,115
2022-12-24T10:20:26.564Z,115
2022-12-24T10:21:26.531Z,110
2022-12-24T10:22:26.792Z,100
2022-12-24T10:23:27.029Z,95
2022-12-24T10:24:27.008Z,95
2022-12-24T10:25:26.965Z,100
2022-12-24T10:26:26.997Z,105
2022-12-24T10:27:26.474Z,110
2022-12-24T10:28:26.979Z,120
2022-12-24T10:29:27.121Z,130
2022-12-24T10:30:27.506Z,125
2022-12-24T10:31:27.110Z,125
2022-12-24T10:32:26.905Z,125
2022-12-24T10:33:26.605Z,130
2022-12-24T10:34:26.626Z,135
2022-12-24T10:35:26.620Z,150
2022-12-24T10:36:26.569Z,155
2022-12-24T10:37:26.549Z,140
2022-12-24T10:38:26.530Z,120
2022-12-24T10:39:26.551Z,105
2022-12-24T10:40:26.583Z,100
2022-12-24T10:41:26.498Z,100
2022-12-24T10:42:26.253Z,105
2022-12-24T10:43:26.740Z,105
2022-12-24T10:44:26.744Z,95
2022-12-24T10:45:26.834Z,90
2022-12-24T10:46:26.790Z,80
2022-12-24T10:47:26.472Z,85
2022-12-24T10:48:26.404Z,85
2022-12-24T10:49:26.135Z,75
2022-12-24T10:50:26.635Z,65
2022-12-24T10:51:26.620Z,70
2022-12-24T10:52:26.157Z,65
2022-12-24T10:53:26.129Z,65
2022-12-24T10:54:35.313Z,65
2022-12-24T10:55:26.347Z,65
2022-12-24T10:56:26.103Z,70
2022-12-24T10:57:26.292Z,85
2022-12-24T10:58:26.281Z,100
2022-12-24T10:59:26.339Z,105
2022-12-24T11:00:35.436Z,100
2022-12-24T11:01:27.376Z,130
2022-12-24T11:02:27.723Z,125
2022-12-24T11:03:26.924Z,135
2022-12-24T11:04:26.257Z,125
2022-12-24T11:05:26.178Z,125
2022-12-24T11:06:25.885Z,135
2022-12-24T11:07:26.156Z,135
2022-12-24T11:08:26.113Z,125
2022-12-24T11:09:26.446Z,125
2022-12-24T11:10:25.940Z,125
2022-12-24T11:11:26.103Z,120
2022-12-24T11:12:26.132Z,130
2022-12-24T11:13:47.075Z,140
2022-12-24T11:14:26.334Z,135
2022-12-24T11:15:26.381Z,115
2022-12-24T11:16:26.471Z,105
2022-12-24T11:17:26.435Z,110
2022-12-24T11:18:25.751Z,120
2022-12-24T11:19:26.053Z,115
2022-12-24T11:20:26.416Z,100
2022-12-24T11:21:25.777Z,95
2022-12-24T11:22:26.168Z,85
2022-12-24T11:23:26.183Z,80
2022-12-24T11:24:26.141Z,85
2022-12-24T11:25:25.880Z,90
2022-12-24T11:26:26.133Z,115
2022-12-24T11:27:25.866Z,140
2022-12-24T11:28:25.366Z,130
2022-12-24T11:29:25.933Z,105
2022-12-24T11:30:26.487Z,90
2022-12-24T11:31:26.649Z,75
2022-12-24T11:32:25.604Z,75
2022-12-24T11:33:26.193Z,75
2022-12-24T11:34:25.795Z,80
2022-12-24T11:35:25.787Z,80
2022-12-24T11:36:25.996Z,75
2022-12-24T11:37:26.011Z,80
2022-12-24T11:38:25.212Z,85
2022-12-24T11:39:25.760Z,85
2022-12-24T11:40:25.961Z,95
2022-12-24T11:41:25.689Z,90
2022-12-24T11:42:25.161Z,110
2022-12-24T11:43:25.184Z,105
2022-12-24T11:44:25.635Z,105
2022-12-24T11:45:25.711Z,100
2022-12-24T11:46:26.217Z,110
2022-12-24T11:47:25.584Z,100
2022-12-24T11:48:25.091Z,95
2022-12-24T11:49:25.922Z,90
2022-12-24T11:50:28.200Z,90
2022-12-24T11:51:25.818Z,105
2022-12-24T11:52:25.530Z,120
2022-12-24T11:53:25.798Z,125
2022-12-24T11:54:25.074Z,120
2022-12-24T11:55:26.549Z,120
2022-12-24T11:56:25.725Z,125
2022-12-24T11:57:25.208Z,125
2022-12-24T11:58:24.953Z,110
2022-12-24T11:59:25.689Z,95
2022-12-24T12:00:25.261Z,80
2022-12-24T12:01:26.312Z,80
2022-12-24T12:02:26.147Z,80
2022-12-24T12:03:25.314Z,75
2022-12-24T12:04:25.912Z,80
2022-12-24T12:05:25.860Z,90
2022-12-24T12:06:25.347Z,95
2022-12-24T12:07:25.186Z,105
2022-12-24T12:08:25.932Z,100
2022-12-24T12:09:25.413Z,105
2022-12-24T12:10:25.947Z,110
2022-12-24T12:11:25.651Z,110
2022-12-24T12:12:25.399Z,105
2022-12-24T12:13:25.459Z,100
2022-12-24T12:14:25.856Z,95
2022-12-24T12:15:25.714Z,90
2022-12-24T12:16:26.214Z,90
2022-12-24T12:17:25.567Z,100
2022-12-24T12:18:25.606Z,110
2022-12-24T12:19:25.974Z,105
2022-12-24T12:20:25.876Z,105
2022-12-24T12:21:25.851Z,115
2022-12-24T12:22:25.485Z,120
2022-12-24T12:23:25.510Z,125
2022-12-24T12:24:32.756Z,120
2022-12-24T12:25:25.481Z,110
2022-12-24T12:26:25.451Z,110
2022-12-24T12:27:25.728Z,90
2022-12-24T12:28:25.433Z,85
2022-12-24T12:29:25.182Z,75
2022-12-24T12:30:25.196Z,75
2022-12-24T12:31:26.475Z,85
2022-12-24T12:32:25.201Z,90
2022-12-24T12:33:25.502Z,100
2022-12-24T12:34:25.340Z,100
2022-12-24T12:35:25.103Z,80
2022-12-24T12:36:25.105Z,65
2022-12-24T12:37:25.717Z,55
2022-12-24T12:38:25.333Z,60
2022-12-24T12:39:25.273Z,65
2022-12-24T12:40:25.255Z,70
2022-12-24T12:41:25.509Z,95
2022-12-24T12:42:25.237Z,95
2022-12-24T12:43:25.218Z,100
2022-12-24T12:44:25.461Z,120
2022-12-24T12:45:25.194Z,110
2022-12-24T12:46:25.524Z,110
2022-12-24T12:47:25.397Z,115
2022-12-24T12:48:25.429Z,120
2022-12-24T12:49:24.369Z,100
2022-12-24T12:50:25.127Z,85
2022-12-24T12:51:24.882Z,80
2022-12-24T12:52:25.118Z,65
2022-12-24T12:53:25.488Z,55
2022-12-24T12:54:25.356Z,50
2022-12-24T12:55:33.264Z,50
2022-12-24T12:56:25.052Z,55
2022-12-24T12:57:25.284Z,60
2022-12-24T12:58:25.320Z,70
2022-12-24T12:59:24.776Z,80
2022-12-24T13:00:25.076Z,85
2022-12-24T13:01:33.404Z,75
2022-12-24T13:02:25.911Z,60
2022-12-24T13:03:25.429Z,60
2022-12-24T13:04:24.931Z,55
2022-12-24T13:05:24.956Z,55
2022-12-24T13:06:24.417Z,65
2022-12-24T13:07:24.897Z,75
2022-12-24T13:08:25.146Z,80
2022-12-24T13:09:25.256Z,70
2022-12-24T13:10:24.974Z,70
2022-12-24T13:11:24.595Z,60
2022-12-24T13:12:24.833Z,50
2022-12-24T13:13:29.797Z,40
2022-12-24T13:14:25.055Z,50
2022-12-24T13:15:24.509Z,40
2022-12-24T13:16:25.235Z,35
2022-12-24T13:17:24.520Z,30
2022-12-24T13:18:24.741Z,30
2022-12-24T13:19:24.505Z,40
2022-12-24T13:20:25.096Z,40
2022-12-24T13:21:24.471Z,40
2022-12-24T13:22:24.698Z,40
2022-12-24T13:23:24.450Z,45
2022-12-24T13:24:24.731Z,45
2022-12-24T13:25:25.017Z,40
2022-12-24T13:26:24.435Z,30
2022-12-24T13:27:24.624Z,35
2022-12-24T13:28:24.602Z,35
2022-12-24T13:29:24.607Z,30
2022-12-24T13:30:24.655Z,40
2022-12-24T13:31:25.187Z,50
2022-12-24T13:32:24.404Z,55
2022-12-24T13:33:24.293Z,50
2022-12-24T13:34:24.807Z,40
2022-12-24T13:35:24.558Z,45
2022-12-24T13:36:24.327Z,45
2022-12-24T13:37:24.789Z,55
2022-12-24T13:38:24.482Z,65
2022-12-24T13:39:24.470Z,65
2022-12-24T13:40:24.745Z,60
2022-12-24T13:41:24.765Z,55
2022-12-24T13:42:24.434Z,50
2022-12-24T13:43:24.137Z,55
2022-12-24T13:44:24.659Z,40
2022-12-24T13:45:24.681Z,35
2022-12-24T13:46:24.915Z,35
2022-12-24T13:47:32.838Z,50
2022-12-24T13:48:24.607Z,55
2022-12-24T13:49:24.339Z,55
2022-12-24T13:50:23.795Z,50
2022-12-24T13:51:24.552Z,50
2022-12-24T13:52:24.533Z,50
2022-12-24T13:53:24.321Z,50
2022-12-24T13:54:24.247Z,50
2022-12-24T13:55:24.489Z,55
2022-12-24T13:56:24.504Z,55
2022-12-24T13:57:24.574Z,50
2022-12-24T13:58:23.683Z,45
2022-12-24T13:59:24.180Z,45
2022-12-24T14:00:24.513Z,45
2022-12-24T14:01:24.417Z,45
2022-12-24T14:02:25.449Z,45
2022-12-24T14:03:24.788Z,50
2022-12-24T14:04:23.868Z,50
2022-12-24T14:05:30.402Z,50
2022-12-24T14:06:24.382Z,50
2022-12-24T14:07:23.537Z,50
2022-12-24T14:08:24.053Z,50
2022-12-24T14:09:24.281Z,45
2022-12-24T14:10:23.788Z,45
2022-12-24T14:11:23.793Z,40
2022-12-24T14:12:33.320Z,40
2022-12-24T14:13:24.028Z,40
2022-12-24T14:14:23.764Z,40
2022-12-24T14:15:24.009Z,40
2022-12-24T14:16:24.510Z,45
2022-12-24T14:17:24.203Z,50
2022-12-24T14:18:23.942Z,50
2022-12-24T14:19:23.396Z,50
2022-12-24T14:20:24.138Z,50
2022-12-24T14:21:23.878Z,50
2022-12-24T14:22:23.599Z,50
2022-12-24T14:23:23.582Z,45
2022-12-24T14:24:24.079Z,40
2022-12-24T14:25:24.086Z,35
2022-12-24T14:26:23.561Z,35
2022-12-24T14:27:23.261Z,30
2022-12-24T14:28:23.861Z,30
2022-12-24T14:29:31.636Z,30
2022-12-24T14:30:23.826Z,30
2022-12-24T14:31:24.113Z,25
2022-12-24T14:32:23.830Z,25
2022-12-24T14:33:23.711Z,30
2022-12-24T14:34:23.708Z,30
2022-12-24T14:35:23.696Z,30
2022-12-24T14:36:23.411Z,25
2022-12-24T14:37:23.629Z,25
2022-12-24T14:38:23.552Z,25
2022-12-24T14:39:23.612Z,25
2022-12-24T14:40:23.866Z,20
2022-12-24T14:41:23.570Z,20
2022-12-24T14:42:23.319Z,20
2022-12-24T14:43:23.556Z,15
2022-12-24T14:44:23.913Z,15
2022-12-24T14:45:23.840Z,15
2022-12-24T14:46:23.369Z,15